createdAt,value
2022-12-18T00:02:14.727Z,29.52
2022-12-18T00:05:18.764Z,29.00
2022-12-18T00:08:22.914Z,28.74
2022-12-18T00:11:26.669Z,28.18
2022-12-18T00:14:30.648Z,28.56
2022-12-18T00:17:34.837Z,28.89
2022-12-18T00:20:38.815Z,29.74
2022-12-18T00:23:43.297Z,29.29
2022-12-18T00:26:47.505Z,29.34
2022-12-18T00:29:53.110Z,29.41
2022-12-18T00:32:57.305Z,29.36
2022-12-18T00:36:01.412Z,29.41
2022-12-18T00:39:05.277Z,28.78
2022-12-18T00:42:09.913Z,29.26
2022-12-18T00:45:14.144Z,28.92
2022-12-18T00:48:17.943Z,29.78
2022-12-18T00:51:21.937Z,28.71
2022-12-18T00:54:25.899Z,28.82
2022-12-18T00:57:30.420Z,29.44
2022-12-18T01:00:34.478Z,29.44
2022-12-18T01:03:38.643Z,29.02
2022-12-18T01:06:42.868Z,28.92
2022-12-18T01:09:46.914Z,29.94
2022-12-18T01:12:50.761Z,29.94
2022-12-18T01:15:54.608Z,30.01
2022-12-18T01:18:58.650Z,30.12
2022-12-18T01:22:02.411Z,29.67
2022-12-18T01:25:06.659Z,29.66
2022-12-18T01:28:10.757Z,30.54
2022-12-18T01:31:14.558Z,29.12
2022-12-18T01:34:18.356Z,28.14
2022-12-18T01:37:22.533Z,29.51
2022-12-18T01:40:27.318Z,29.90
2022-12-18T01:43:31.928Z,29.70
2022-12-18T01:46:36.069Z,30.30
2022-12-18T01:49:40.037Z,29.81
2022-12-18T01:52:44.207Z,29.60
2022-12-18T01:55:48.403Z,30.03
2022-12-18T01:58:52.531Z,29.86
2022-12-18T02:01:57.475Z,29.59
2022-12-18T02:05:01.836Z,30.18
2022-12-18T02:08:05.584Z,30.41
2022-12-18T02:11:09.587Z,30.38
2022-12-18T02:14:13.666Z,30.01
2022-12-18T02:17:17.608Z,30.83
2022-12-18T02:20:21.607Z,30.14
2022-12-18T02:23:25.810Z,30.34
2022-12-18T02:26:29.878Z,29.67
2022-12-18T02:29:33.864Z,29.42
2022-12-18T02:32:37.711Z,29.39
2022-12-18T02:35:41.857Z,30.07
2022-12-18T02:38:46.120Z,29.10
2022-12-18T02:41:50.264Z,29.85
2022-12-18T02:44:54.187Z,29.52
2022-12-18T02:47:58.246Z,29.67
2022-12-18T02:51:02.586Z,29.50
2022-12-18T02:54:06.615Z,29.89
2022-12-18T02:57:10.680Z,30.02
2022-12-18T03:00:14.571Z,30.12
2022-12-18T03:03:18.703Z,30.01
2022-12-18T03:06:23.806Z,30.51
2022-12-18T03:09:27.875Z,30.06
2022-12-18T03:12:32.123Z,30.02
2022-12-18T03:15:35.710Z,30.64
2022-12-18T03:18:39.842Z,30.17
2022-12-18T03:21:43.880Z,29.89
2022-12-18T03:24:47.871Z,29.22
2022-12-18T03:27:51.797Z,29.83
2022-12-18T03:30:55.704Z,29.59
2022-12-18T03:34:00.024Z,27.84
2022-12-18T03:37:04.114Z,29.38
2022-12-18T03:40:08.217Z,28.96
2022-12-18T03:43:12.138Z,28.30
2022-12-18T03:46:16.387Z,28.90
2022-12-18T03:49:20.276Z,29.31
2022-12-18T03:52:24.332Z,29.08
2022-12-18T03:55:28.023Z,28.72
2022-12-18T03:58:32.112Z,28.01
2022-12-18T04:01:36.435Z,28.06
2022-12-18T04:04:40.272Z,26.98
2022-12-18T04:07:44.216Z,27.75
2022-12-18T04:10:47.799Z,27.28
2022-12-18T04:13:51.952Z,27.92
2022-12-18T04:16:55.674Z,27.57
2022-12-18T04:20:01.634Z,26.58
2022-12-18T04:23:05.665Z,27.11
2022-12-18T04:26:09.644Z,27.78
2022-12-18T04:29:14.179Z,28.25
2022-12-18T04:32:18.382Z,28.74
2022-12-18T04:35:22.280Z,28.40
2022-12-18T04:38:26.183Z,29.11
2022-12-18T04:41:29.743Z,28.82
2022-12-18T04:44:33.910Z,28.97
2022-12-18T04:47:37.958Z,28.55
2022-12-18T04:50:41.667Z,29.42
2022-12-18T04:53:45.172Z,28.59
2022-12-18T04:56:49.335Z,28.01
2022-12-18T04:59:53.184Z,29.72
2022-12-18T05:02:57.195Z,28.88
2022-12-18T05:06:00.974Z,29.72
2022-12-18T05:09:04.903Z,29.91
2022-12-18T05:12:10.100Z,30.13
2022-12-18T05:15:14.075Z,30.42
2022-12-18T05:18:18.050Z,30.49
2022-12-18T05:21:22.078Z,31.07
2022-12-18T05:24:25.953Z,31.00
2022-12-18T05:27:30.333Z,29.84
2022-12-18T05:30:34.372Z,30.26
2022-12-18T05:33:38.301Z,30.88
2022-12-18T05:36:42.435Z,31.08
2022-12-18T05:39:46.712Z,31.03
2022-12-18T05:42:51.010Z,31.49
2022-12-18T05:45:54.887Z,30.72
2022-12-18T05:48:58.798Z,31.30
2022-12-18T05:52:02.903Z,31.15
2022-12-18T05:55:06.730Z,30.82
2022-12-18T05:58:10.774Z,31.34
2022-12-18T06:01:14.886Z,32.11
2022-12-18T06:04:18.815Z,31.24
2022-12-18T06:07:23.006Z,31.10
2022-12-18T06:10:26.768Z,30.71
2022-12-18T06:13:31.058Z,31.74
2022-12-18T06:16:35.030Z,30.28
2022-12-18T06:19:38.964Z,30.84
2022-12-18T06:22:43.022Z,31.48
2022-12-18T06:25:47.160Z,30.74
2022-12-18T06:28:50.991Z,29.00
2022-12-18T06:31:55.300Z,31.13
2022-12-18T06:34:59.196Z,30.85
2022-12-18T06:38:03.216Z,30.01
2022-12-18T06:41:07.211Z,30.40
2022-12-18T06:44:10.936Z,30.26
2022-12-18T06:47:15.670Z,29.68
2022-12-18T06:50:19.996Z,29.08
2022-12-18T06:53:24.317Z,29.38
2022-12-18T06:56:28.091Z,27.73
2022-12-18T06:59:32.094Z,28.48
2022-12-18T07:02:36.255Z,28.18
2022-12-18T07:05:40.058Z,28.38
2022-12-18T07:08:44.036Z,28.34
2022-12-18T07:11:47.987Z,28.71
2022-12-18T07:14:51.937Z,29.03
2022-12-18T07:17:57.080Z,27.90
2022-12-18T07:21:00.918Z,26.90
2022-12-18T07:24:04.972Z,27.03
2022-12-18T07:27:08.957Z,26.75
2022-12-18T07:30:14.202Z,27.18
2022-12-18T07:33:18.289Z,25.72
2022-12-18T07:36:22.292Z,25.30
2022-12-18T07:39:28.421Z,25.98
2022-12-18T07:42:32.464Z,24.02
2022-12-18T07:45:36.516Z,24.03
2022-12-18T07:48:40.574Z,24.78
2022-12-18T07:51:44.893Z,25.00
2022-12-18T07:54:48.633Z,25.09
2022-12-18T07:57:55.400Z,23.40
2022-12-18T08:01:03.577Z,23.89
2022-12-18T08:04:07.262Z,22.70
2022-12-18T08:07:11.269Z,22.13
2022-12-18T08:10:15.302Z,21.69
2022-12-18T08:13:19.233Z,22.41
2022-12-18T08:16:23.241Z,22.60
2022-12-18T08:19:27.239Z,23.88
2022-12-18T08:22:31.711Z,25.24
2022-12-18T08:25:35.604Z,24.48
2022-12-18T08:28:39.887Z,23.28
2022-12-18T08:31:43.857Z,23.74
2022-12-18T08:34:48.516Z,22.93
2022-12-18T08:37:56.881Z,24.09
2022-12-18T08:41:01.000Z,22.77
2022-12-18T08:44:05.469Z,23.39
2022-12-18T08:47:10.645Z,23.11
2022-12-18T08:50:14.776Z,22.38
2022-12-18T08:53:18.614Z,23.29
2022-12-18T08:56:23.009Z,22.65
2022-12-18T08:59:27.093Z,24.22
2022-12-18T09:02:31.294Z,24.94
2022-12-18T09:05:35.424Z,24.05
2022-12-18T09:08:39.797Z,24.38
2022-12-18T09:11:44.042Z,23.97
2022-12-18T09:14:47.943Z,23.83
2022-12-18T09:17:51.878Z,24.49
2022-12-18T09:20:55.692Z,23.23
2022-12-18T09:23:59.634Z,22.96
2022-12-18T09:27:03.544Z,23.75
2022-12-18T09:30:07.359Z,25.79
2022-12-18T09:33:11.343Z,27.25
2022-12-18T09:36:15.305Z,24.21
2022-12-18T09:39:19.244Z,22.83
2022-12-18T09:42:27.171Z,22.16
2022-12-18T09:45:31.096Z,21.40
2022-12-18T09:48:34.850Z,20.63
2022-12-18T09:51:38.977Z,21.19
2022-12-18T09:54:42.986Z,23.02
2022-12-18T09:57:47.019Z,23.34
2022-12-18T10:00:50.944Z,22.78
2022-12-18T10:03:55.130Z,24.57
2022-12-18T10:07:04.320Z,21.93
2022-12-18T10:10:11.320Z,21.53
2022-12-18T10:13:15.076Z,21.22
2022-12-18T10:16:21.058Z,21.53
2022-12-18T10:19:25.137Z,22.27
2022-12-18T10:22:29.035Z,21.33
2022-12-18T10:25:33.155Z,20.95
2022-12-18T10:28:37.249Z,21.52
2022-12-18T10:31:41.455Z,22.04
2022-12-18T10:34:49.501Z,23.17
2022-12-18T10:37:57.661Z,23.91
2022-12-18T10:41:02.020Z,24.26
2022-12-18T10:44:06.155Z,24.66
2022-12-18T10:47:11.922Z,24.36
2022-12-18T10:50:16.045Z,23.85
2022-12-18T10:53:19.807Z,23.91
2022-12-18T10:56:25.014Z,23.32
2022-12-18T10:59:28.953Z,23.60
2022-12-18T11:02:32.969Z,23.87
2022-12-18T11:05:36.830Z,23.39
2022-12-18T11:08:41.356Z,23.82
2022-12-18T11:11:45.643Z,23.71
2022-12-18T11:14:50.756Z,23.24
2022-12-18T11:17:54.786Z,23.05
2022-12-18T11:20:59.116Z,23.71
2022-12-18T11:24:03.189Z,22.27
2022-12-18T11:27:07.185Z,22.55
2022-12-18T11:30:10.892Z,22.52
2022-12-18T11:33:14.872Z,22.35
2022-12-18T11:36:18.648Z,21.94
2022-12-18T11:39:22.695Z,22.46
2022-12-18T11:42:27.314Z,22.10
2022-12-18T11:45:30.842Z,21.95
2022-12-18T11:48:34.695Z,22.92
2022-12-18T11:51:38.407Z,22.42
2022-12-18T11:54:42.319Z,22.36
2022-12-18T11:57:46.729Z,22.02
2022-12-18T12:00:50.715Z,22.46
2022-12-18T12:03:54.729Z,22.05
2022-12-18T12:07:03.133Z,21.96
2022-12-18T12:10:07.818Z,21.46
2022-12-18T12:13:11.859Z,22.14
2022-12-18T12:16:15.820Z,21.29
2022-12-18T12:19:25.874Z,21.72
2022-12-18T12:22:29.613Z,21.62
2022-12-18T12:25:33.537Z,20.88
2022-12-18T12:28:37.664Z,21.43
2022-12-18T12:31:42.093Z,22.05
2022-12-18T12:34:51.704Z,21.19
2022-12-18T12:37:57.861Z,21.09
2022-12-18T12:41:03.410Z,21.24
2022-12-18T12:44:08.534Z,22.02
2022-12-18T12:47:12.524Z,21.96
2022-12-18T12:50:17.359Z,21.75
2022-12-18T12:53:21.158Z,21.58
2022-12-18T12:56:25.842Z,22.14
2022-12-18T12:59:33.022Z,21.41
2022-12-18T13:02:38.817Z,21.64
2022-12-18T13:05:43.240Z,22.18
2022-12-18T13:08:47.460Z,21.36
2022-12-18T13:11:57.871Z,21.93
2022-12-18T13:15:08.755Z,21.78
2022-12-18T13:18:15.565Z,21.39
2022-12-18T13:21:20.087Z,21.65
2022-12-18T13:24:25.022Z,21.03
2022-12-18T13:27:28.988Z,21.98
2022-12-18T13:30:33.537Z,22.51
2022-12-18T13:33:50.766Z,22.24
2022-12-18T13:37:01.642Z,23.05
2022-12-18T13:40:05.870Z,22.25
2022-12-18T13:43:10.021Z,22.45
2022-12-18T13:46:14.139Z,22.67
2022-12-18T13:49:19.906Z,22.50
2022-12-18T13:52:23.945Z,21.84
2022-12-18T13:55:28.074Z,22.84
2022-12-18T13:58:32.010Z,22.54
2022-12-18T14:01:36.040Z,22.61
2022-12-18T14:04:39.972Z,23.22
2022-12-18T14:07:46.530Z,22.28
2022-12-18T14:10:55.228Z,22.88
2022-12-18T14:13:59.367Z,21.98
2022-12-18T14:17:03.209Z,22.86
2022-12-18T14:20:07.116Z,22.27
2022-12-18T14:23:11.216Z,22.15
2022-12-18T14:26:15.346Z,22.17
2022-12-18T14:29:19.266Z,22.54
2022-12-18T14:32:23.657Z,21.54
2022-12-18T14:35:27.739Z,22.48
2022-12-18T14:38:32.372Z,23.08
2022-12-18T14:41:36.226Z,22.55
2022-12-18T14:45:05.013Z,22.02
2022-12-18T14:48:03.736Z,22.36
2022-12-18T14:51:07.557Z,22.45
2022-12-18T14:54:11.570Z,23.11
2022-12-18T14:57:15.723Z,22.21
2022-12-18T15:00:20.975Z,23.93
2022-12-18T15:03:24.849Z,22.47
2022-12-18T15:06:30.080Z,23.02
2022-12-18T15:09:34.233Z,22.81
2022-12-18T15:12:38.111Z,22.76
2022-12-18T15:15:42.398Z,22.88
2022-12-18T15:18:46.265Z,23.58
2022-12-18T15:21:50.347Z,24.71
2022-12-18T15:24:54.284Z,26.41
2022-12-18T15:27:58.383Z,26.49
2022-12-18T15:31:02.458Z,27.26
2022-12-18T15:34:06.332Z,28.21
2022-12-18T15:37:10.667Z,29.75
2022-12-18T15:40:14.624Z,27.73
2022-12-18T15:43:19.745Z,28.16
2022-12-18T15:46:23.784Z,29.47
2022-12-18T15:49:27.553Z,28.90
2022-12-18T15:52:31.687Z,29.30
2022-12-18T15:55:35.769Z,29.41
2022-12-18T15:58:40.322Z,29.34
2022-12-18T16:01:44.065Z,30.11
2022-12-18T16:04:48.008Z,29.71
2022-12-18T16:07:52.101Z,30.77
2022-12-18T16:10:56.178Z,30.28
2022-12-18T16:14:00.368Z,29.67
2022-12-18T16:17:04.102Z,29.10
2022-12-18T16:20:08.257Z,30.27
2022-12-18T16:23:12.469Z,29.81
2022-12-18T16:26:16.507Z,31.08
2022-12-18T16:29:20.654Z,29.54
2022-12-18T16:32:24.811Z,29.63
2022-12-18T16:35:28.646Z,29.42
2022-12-18T16:38:32.996Z,30.00
2022-12-18T16:41:37.088Z,29.26
2022-12-18T16:44:40.989Z,29.54
2022-12-18T16:47:45.124Z,31.77
2022-12-18T16:50:49.103Z,31.18
2022-12-18T16:53:53.282Z,29.99
2022-12-18T16:56:57.303Z,30.44
2022-12-18T17:00:05.442Z,29.94
2022-12-18T17:03:09.760Z,29.91
2022-12-18T17:06:13.478Z,30.68
2022-12-18T17:09:17.760Z,30.43
2022-12-18T17:12:21.934Z,30.29
2022-12-18T17:15:25.899Z,29.59
2022-12-18T17:18:30.015Z,29.59
2022-12-18T17:21:34.016Z,29.83
2022-12-18T17:24:38.124Z,29.07
2022-12-18T17:27:42.143Z,28.57
2022-12-18T17:30:46.091Z,29.03
2022-12-18T17:33:50.096Z,28.85
2022-12-18T17:36:54.041Z,28.62
2022-12-18T17:39:58.168Z,27.76
2022-12-18T17:43:02.126Z,29.18
2022-12-18T17:46:06.185Z,28.85
2022-12-18T17:49:13.333Z,29.70
2022-12-18T17:52:17.322Z,29.01
2022-12-18T17:55:21.351Z,29.24
2022-12-18T17:58:25.357Z,28.84
2022-12-18T18:01:29.406Z,27.31
2022-12-18T18:04:33.317Z,28.31
2022-12-18T18:07:37.350Z,28.87
2022-12-18T18:10:41.235Z,28.12
2022-12-18T18:13:47.164Z,28.67
2022-12-18T18:16:51.171Z,27.06
2022-12-18T18:19:55.324Z,27.78
2022-12-18T18:22:59.482Z,28.98
2022-12-18T18:26:03.452Z,29.14
2022-12-18T18:29:07.983Z,33.75
2022-12-18T18:32:12.608Z,34.04
2022-12-18T18:35:45.131Z,34.07
2022-12-18T18:38:44.121Z,37.11
2022-12-18T18:41:51.027Z,37.07
2022-12-18T18:44:54.960Z,37.85
2022-12-18T18:47:59.687Z,35.24
2022-12-18T18:51:03.800Z,33.55
2022-12-18T18:54:07.875Z,32.50
2022-12-18T18:57:20.399Z,34.73
2022-12-18T19:00:24.386Z,34.48
2022-12-18T19:03:28.420Z,36.47
2022-12-18T19:06:32.362Z,35.59
2022-12-18T19:09:37.394Z,35.34
2022-12-18T19:12:41.364Z,34.93
2022-12-18T19:15:45.364Z,34.42
2022-12-18T19:18:49.353Z,30.96
2022-12-18T19:21:53.274Z,29.57
2022-12-18T19:24:57.375Z,29.52
2022-12-18T19:28:01.464Z,28.73
2022-12-18T19:31:05.359Z,27.97
2022-12-18T19:34:09.360Z,30.28
2022-12-18T19:37:13.514Z,30.55
2022-12-18T19:40:17.659Z,29.47
2022-12-18T19:43:21.728Z,28.89
2022-12-18T19:46:25.810Z,30.62
2022-12-18T19:49:29.746Z,30.49
2022-12-18T19:52:34.323Z,30.30
2022-12-18T19:55:38.409Z,30.17
2022-12-18T19:58:42.910Z,31.98
2022-12-18T20:01:47.182Z,31.47
2022-12-18T20:04:51.332Z,30.39
2022-12-18T20:07:55.373Z,30.18
2022-12-18T20:10:59.255Z,30.22
2022-12-18T20:14:03.020Z,31.65
2022-12-18T20:17:06.960Z,30.64
2022-12-18T20:20:11.072Z,31.16
2022-12-18T20:23:15.271Z,29.98
2022-12-18T20:26:19.421Z,30.34
2022-12-18T20:29:23.340Z,28.85
2022-12-18T20:32:27.328Z,29.93
2022-12-18T20:35:33.571Z,28.78
2022-12-18T20:38:37.658Z,28.01
2022-12-18T20:41:41.674Z,29.22
2022-12-18T20:44:45.540Z,28.42
2022-12-18T20:47:49.670Z,27.96
2022-12-18T20:50:53.626Z,28.59
2022-12-18T20:53:57.787Z,29.48
2022-12-18T20:57:01.835Z,28.64
2022-12-18T21:00:05.657Z,28.32
2022-12-18T21:03:09.842Z,28.03
2022-12-18T21:06:14.126Z,28.47
2022-12-18T21:09:17.997Z,29.35
2022-12-18T21:12:21.987Z,30.33
2022-12-18T21:15:28.790Z,30.10
2022-12-18T21:18:33.067Z,30.25
2022-12-18T21:21:38.710Z,31.48
2022-12-18T21:24:43.379Z,30.74
2022-12-18T21:27:47.369Z,31.87
2022-12-18T21:30:51.259Z,31.45
2022-12-18T21:33:55.852Z,31.11
2022-12-18T21:37:05.876Z,31.20
2022-12-18T21:40:09.993Z,32.45
2022-12-18T21:43:16.074Z,32.44
2022-12-18T21:46:21.959Z,33.16
2022-12-18T21:49:26.004Z,32.74
2022-12-18T21:52:32.053Z,35.20
2022-12-18T21:55:38.037Z,33.91
2022-12-18T21:58:56.637Z,35.50
2022-12-18T22:02:01.375Z,34.19
2022-12-18T22:05:05.396Z,32.74
2022-12-18T22:08:09.942Z,33.20
2022-12-18T22:11:13.866Z,33.53
2022-12-18T22:14:18.734Z,35.25
2022-12-18T22:17:22.728Z,35.46
2022-12-18T22:20:26.913Z,33.52
2022-12-18T22:23:31.004Z,36.24
2022-12-18T22:26:39.455Z,36.64
2022-12-18T22:29:43.925Z,36.17
2022-12-18T22:32:47.950Z,43.97
2022-12-18T22:35:51.864Z,40.94
2022-12-18T22:38:56.131Z,36.17
2022-12-18T22:42:00.159Z,35.09
2022-12-18T22:45:04.008Z,35.50
2022-12-18T22:48:07.906Z,34.70
2022-12-18T22:51:11.811Z,34.16
2022-12-18T22:54:15.814Z,34.09
2022-12-18T22:57:21.951Z,33.89
2022-12-18T23:00:25.544Z,33.75
2022-12-18T23:03:29.667Z,33.93
2022-12-18T23:06:33.643Z,33.80
2022-12-18T23:09:37.749Z,32.87
2022-12-18T23:12:41.792Z,33.01
2022-12-18T23:15:45.732Z,32.72
2022-12-18T23:18:50.032Z,32.44
2022-12-18T23:21:54.885Z,33.91
2022-12-18T23:25:01.226Z,32.04
2022-12-18T23:28:05.234Z,32.80
2022-12-18T23:31:09.137Z,32.66
2022-12-18T23:34:13.019Z,33.42
2022-12-18T23:37:35.296Z,32.85
2022-12-18T23:40:40.958Z,33.60
2022-12-18T23:43:44.874Z,31.84
2022-12-18T23:46:50.862Z,31.69
2022-12-18T23:49:54.977Z,31.04
2022-12-18T23:53:05.014Z,31.06
2022-12-18T23:56:09.687Z,30.75
2022-12-18T23:59:14.065Z,31.93
